Time;durP1;ratioP1;P1;durP2;ratioP2;P2;SDS_P1;SDS_P2;PMS_P1;PMS_P2;Temp;Humidity;BMP_temperature;BMP_pressure;BME280_temperature;BME280_humidity;BME280_pressure;Samples;Min_cycle;Max_cycle;Signal;HPM_P1;HPM_P2
2022/12/17 13:06:44;;;;;;;39.33;21.43;;;-0.30;99.90;;;;;;5027721;28;20506;-82
2022/12/17 13:09:16;;;;;;;43.63;24.47;;;-0.20;99.90;;;;;;5031782;28;20493;-83
2022/12/17 13:11:47;;;;;;;40.00;23.10;;;-0.20;99.90;;;;;;5029218;28;21075;-79
2022/12/17 13:14:23;;;;;;;40.73;22.60;;;-0.30;99.90;;;;;;5031094;28;20469;-76
2022/12/17 13:16:59;;;;;;;46.10;24.63;;;-0.20;99.90;;;;;;5028675;28;20483;-83
2022/12/17 13:19:57;;;;;;;49.50;25.47;;;-0.10;99.90;;;;;;5028489;28;20448;-81
2022/12/17 13:22:22;;;;;;;42.87;24.17;;;-0.10;99.90;;;;;;5029398;28;20445;-79
2022/12/17 13:24:51;;;;;;;40.53;22.40;;;0.00;99.90;;;;;;5032206;28;20476;-80
2022/12/17 13:27:32;;;;;;;45.60;23.90;;;0.00;99.90;;;;;;5025950;28;20216;-75
2022/12/17 13:30:16;;;;;;;38.20;23.20;;;0.10;99.90;;;;;;5024675;28;20447;-77
2022/12/17 13:32:48;;;;;;;39.83;22.80;;;0.10;99.90;;;;;;5029860;28;20453;-78
2022/12/17 13:35:33;;;;;;;44.43;23.50;;;0.20;99.90;;;;;;5028056;28;20470;-76
2022/12/17 13:38:17;;;;;;;37.63;22.57;;;0.20;99.90;;;;;;5029117;28;20484;-79
2022/12/17 13:41:06;;;;;;;36.93;21.40;;;0.20;99.90;;;;;;4997888;28;21007;-74
2022/12/17 13:43:37;;;;;;;37.70;22.63;;;0.20;99.90;;;;;;5023464;28;20471;-75
2022/12/17 13:46:03;;;;;;;38.67;22.37;;;0.20;99.90;;;;;;5032968;28;20517;-77
2022/12/17 13:48:29;;;;;;;45.87;25.00;;;0.20;99.90;;;;;;5017274;28;20524;-77
2022/12/17 13:51:00;;;;;;;43.47;24.63;;;0.30;99.90;;;;;;5030407;28;20183;-76
2022/12/17 13:53:28;;;;;;;40.60;20.43;;;0.30;99.90;;;;;;5031442;28;20547;-80
2022/12/17 13:55:56;;;;;;;41.27;23.53;;;0.20;99.90;;;;;;5029847;28;21026;-69
2022/12/17 13:58:28;;;;;;;47.20;23.90;;;0.20;99.90;;;;;;5014880;28;20501;-76
2022/12/17 14:01:10;;;;;;;43.47;25.37;;;0.20;99.90;;;;;;5031061;28;20493;-76
2022/12/17 14:03:37;;;;;;;39.07;22.77;;;0.30;99.90;;;;;;5031367;28;20492;-77
2022/12/17 14:06:06;;;;;;;37.97;23.30;;;0.30;99.90;;;;;;5029794;28;20434;-71
2022/12/17 14:08:33;;;;;;;45.93;26.07;;;0.30;99.90;;;;;;5020249;28;20428;-72
2022/12/17 14:13:47;;;;;;;38.73;22.17;;;0.20;99.90;;;;;;5034540;28;20535;-75
2022/12/17 14:16:20;;;;;;;42.13;23.30;;;0.20;99.90;;;;;;5035234;28;20558;-76
2022/12/17 14:18:51;;;;;;;43.00;24.47;;;0.30;99.90;;;;;;5037392;28;20452;-76
2022/12/17 14:21:18;;;;;;;37.50;22.77;;;0.30;99.90;;;;;;5023959;28;20452;-76
2022/12/17 14:23:45;;;;;;;40.53;22.70;;;0.30;99.90;;;;;;5036078;28;20537;-76
2022/12/17 14:26:12;;;;;;;44.50;27.37;;;0.30;99.90;;;;;;5037313;28;20435;-76
2022/12/17 14:28:49;;;;;;;44.70;25.60;;;0.30;99.90;;;;;;5033386;28;20440;-76
2022/12/17 14:31:24;;;;;;;46.30;24.63;;;0.30;99.90;;;;;;5039570;28;20517;-77
2022/12/17 14:34:09;;;;;;;49.43;27.00;;;0.30;99.90;;;;;;5038876;28;21025;-75
2022/12/17 14:36:38;;;;;;;42.10;24.17;;;0.30;99.90;;;;;;5035426;28;20439;-75
2022/12/17 14:39:35;;;;;;;41.63;23.03;;;0.30;99.90;;;;;;5035533;28;20435;-75
2022/12/17 14:42:31;;;;;;;39.37;22.90;;;0.30;99.90;;;;;;5023184;28;20598;-75
2022/12/17 14:45:14;;;;;;;40.10;24.20;;;0.20;99.90;;;;;;5032652;28;20476;-75
2022/12/17 14:48:03;;;;;;;39.77;22.90;;;0.20;99.90;;;;;;5035226;28;20471;-75
2022/12/17 14:50:34;;;;;;;35.67;20.70;;;0.10;99.90;;;;;;5021689;28;20439;-75
2022/12/17 14:53:03;;;;;;;39.50;23.20;;;0.10;99.90;;;;;;5020742;28;20429;-75
2022/12/17 14:55:51;;;;;;;39.37;22.80;;;0.10;99.90;;;;;;5037439;28;20550;-75
2022/12/17 14:58:20;;;;;;;41.67;24.47;;;0.00;99.90;;;;;;5032027;28;20433;-76
2022/12/17 15:01:09;;;;;;;45.97;25.70;;;0.00;99.90;;;;;;5038560;28;20428;-76
2022/12/17 15:03:41;;;;;;;40.23;22.93;;;-0.10;99.90;;;;;;5024410;28;20477;-76
2022/12/17 15:06:10;;;;;;;40.63;23.23;;;-0.20;99.90;;;;;;5019144;28;20443;-76
2022/12/17 15:08:39;;;;;;;42.50;24.60;;;-0.30;99.90;;;;;;5038566;28;20986;-76
2022/12/17 15:11:06;;;;;;;50.17;25.17;;;-0.30;99.90;;;;;;5038322;28;20424;-76
2022/12/17 15:13:31;;;;;;;40.70;23.93;;;-0.30;99.90;;;;;;5036779;28;21079;-76
2022/12/17 15:15:57;;;;;;;38.60;23.30;;;-0.40;99.90;;;;;;5020552;28;20472;-75
2022/12/17 15:18:22;;;;;;;42.83;24.33;;;-0.40;99.90;;;;;;5021140;28;20188;-76
2022/12/17 15:20:48;;;;;;;46.20;25.10;;;-0.40;99.90;;;;;;5036004;28;20228;-75
2022/12/17 15:23:17;;;;;;;49.67;26.00;;;-0.50;99.90;;;;;;5041046;28;20236;-75
2022/12/17 15:25:44;;;;;;;46.87;26.33;;;-0.50;99.90;;;;;;5038832;28;20257;-75
2022/12/17 15:28:10;;;;;;;45.07;23.73;;;-0.50;99.90;;;;;;5033978;28;20447;-75
2022/12/17 15:30:37;;;;;;;42.40;24.60;;;-0.50;99.90;;;;;;5035699;28;20409;-76
2022/12/17 15:33:02;;;;;;;50.10;26.53;;;-0.60;99.90;;;;;;5034591;28;20487;-75
2022/12/17 15:35:28;;;;;;;51.80;26.90;;;-0.60;99.90;;;;;;5036465;28;20466;-76
2022/12/17 15:37:54;;;;;;;47.20;26.67;;;-0.60;99.90;;;;;;5039624;28;20275;-76
2022/12/17 15:40:20;;;;;;;46.73;26.17;;;-0.70;99.90;;;;;;5040508;28;20858;-75
2022/12/17 15:45:30;;;;;;;51.60;26.63;;;-0.70;99.90;;;;;;5037407;28;20211;-75
2022/12/17 15:47:56;;;;;;;49.87;27.00;;;-0.70;99.90;;;;;;5032264;28;20446;-75
2022/12/17 15:50:22;;;;;;;49.87;28.17;;;-0.80;99.90;;;;;;5037140;28;20438;-76
2022/12/17 15:52:47;;;;;;;47.67;27.90;;;-0.80;99.90;;;;;;5039401;28;20973;-75
2022/12/17 15:55:14;;;;;;;48.57;25.37;;;-0.90;99.90;;;;;;5038327;28;20684;-77
2022/12/17 15:57:39;;;;;;;60.63;29.37;;;-0.90;99.90;;;;;;5034775;28;20189;-76
2022/12/17 16:00:06;;;;;;;49.37;26.13;;;-0.90;99.90;;;;;;5040666;28;20445;-76
2022/12/17 16:02:31;;;;;;;51.60;27.37;;;-0.80;99.90;;;;;;5038938;28;20199;-76
2022/12/17 16:04:57;;;;;;;52.60;27.43;;;-0.90;99.90;;;;;;5039309;28;20924;-74
2022/12/17 16:07:22;;;;;;;46.30;28.13;;;-0.90;99.90;;;;;;5037633;28;20263;-75
2022/12/17 16:09:48;;;;;;;56.93;29.57;;;-0.90;99.90;;;;;;5040476;28;20176;-75
2022/12/17 16:12:13;;;;;;;53.13;28.33;;;-0.90;99.90;;;;;;5034975;28;20180;-76
2022/12/17 16:14:39;;;;;;;55.70;27.97;;;-0.90;99.90;;;;;;5035128;28;20219;-76
2022/12/17 16:17:05;;;;;;;59.13;28.80;;;-1.00;99.90;;;;;;5020523;28;20356;-75
2022/12/17 16:19:30;;;;;;;63.07;30.47;;;-1.00;99.90;;;;;;5040288;28;20200;-75
2022/12/17 16:21:56;;;;;;;49.10;25.30;;;-1.10;99.90;;;;;;5040268;28;20224;-75
2022/12/17 16:24:21;;;;;;;49.37;26.57;;;-1.10;99.90;;;;;;5037025;28;20219;-75
2022/12/17 16:26:47;;;;;;;63.70;28.20;;;-1.10;99.90;;;;;;5032801;28;20188;-74
2022/12/17 16:29:12;;;;;;;57.57;31.17;;;-1.10;99.90;;;;;;5033745;28;20206;-74
2022/12/17 16:31:38;;;;;;;54.43;26.53;;;-1.10;99.90;;;;;;5035398;28;20178;-74
2022/12/17 16:34:08;;;;;;;52.40;27.53;;;-1.10;99.90;;;;;;5034940;28;20247;-76
2022/12/17 16:36:34;;;;;;;46.47;26.40;;;-1.10;99.90;;;;;;5032215;28;20292;-78
2022/12/17 16:39:00;;;;;;;50.50;26.67;;;-1.10;99.90;;;;;;5030653;28;20545;-76
2022/12/17 16:41:25;;;;;;;57.67;28.77;;;-1.20;99.90;;;;;;5036257;28;20201;-70
2022/12/17 16:43:51;;;;;;;48.77;26.17;;;-1.20;99.90;;;;;;5031294;28;20219;-70
2022/12/17 16:46:38;;;;;;;55.90;27.37;;;-1.20;99.90;;;;;;5030015;28;20274;-71
2022/12/17 16:49:15;;;;;;;44.60;26.33;;;-1.20;99.90;;;;;;5028465;28;20195;-67
2022/12/17 16:51:42;;;;;;;56.93;29.23;;;-1.30;99.90;;;;;;5028007;28;20477;-70
2022/12/17 16:54:13;;;;;;;46.67;27.27;;;-1.30;99.90;;;;;;5025486;28;20462;-70
2022/12/17 16:56:40;;;;;;;49.63;26.57;;;-1.30;99.90;;;;;;5029726;28;20462;-70
2022/12/17 16:59:08;;;;;;;50.77;25.80;;;-1.30;99.90;;;;;;5031072;28;20447;-79
2022/12/17 17:01:37;;;;;;;49.70;27.30;;;-1.40;99.90;;;;;;5032448;28;20444;-79
2022/12/17 17:04:04;;;;;;;52.37;27.90;;;-1.40;99.90;;;;;;5036346;28;20615;-78
2022/12/17 17:06:30;;;;;;;48.47;25.80;;;-1.40;99.90;;;;;;5037079;28;20434;-78
2022/12/17 17:08:55;;;;;;;52.23;27.70;;;-1.50;99.90;;;;;;5033029;28;20443;-79
2022/12/17 17:11:24;;;;;;;55.77;28.27;;;-1.50;99.90;;;;;;5034138;28;20497;-80
2022/12/17 17:13:51;;;;;;;54.17;26.43;;;-1.50;99.90;;;;;;5033334;28;20219;-80
2022/12/17 17:16:19;;;;;;;51.13;26.17;;;-1.60;99.90;;;;;;5032056;28;20816;-79
2022/12/17 17:18:44;;;;;;;52.77;27.63;;;-1.70;99.90;;;;;;5030331;28;21152;-79
2022/12/17 17:21:17;;;;;;;59.63;28.93;;;-1.70;99.90;;;;;;5037419;28;20454;-79
2022/12/17 17:23:43;;;;;;;55.77;27.57;;;-1.70;99.90;;;;;;5034278;28;20216;-79
2022/12/17 17:26:09;;;;;;;47.97;25.77;;;-1.80;99.90;;;;;;5032958;28;20901;-78
2022/12/17 17:28:35;;;;;;;52.83;26.63;;;-1.80;99.90;;;;;;5031447;28;21331;-78
2022/12/17 17:31:02;;;;;;;42.30;24.43;;;-1.80;99.90;;;;;;5016905;28;20448;-77
2022/12/17 17:33:29;;;;;;;47.17;25.67;;;-1.80;99.90;;;;;;5035762;28;20191;-77
2022/12/17 17:36:01;;;;;;;50.43;26.43;;;-1.80;99.90;;;;;;5031961;28;21280;-79
2022/12/17 17:38:26;;;;;;;46.93;27.57;;;-1.90;99.90;;;;;;5030907;28;20431;-79
2022/12/17 17:40:56;;;;;;;54.43;26.70;;;-1.90;99.90;;;;;;5028838;28;20445;-79
2022/12/17 17:43:22;;;;;;;48.00;27.00;;;-2.00;99.90;;;;;;5037401;28;20190;-80
2022/12/17 17:45:47;;;;;;;53.90;29.47;;;-2.00;99.90;;;;;;5038174;28;20446;-76
2022/12/17 17:48:13;;;;;;;54.20;30.37;;;-2.00;99.90;;;;;;5037808;28;20203;-76
2022/12/17 17:50:38;;;;;;;53.93;29.27;;;-2.10;99.90;;;;;;5033317;28;20188;-75
2022/12/17 17:53:04;;;;;;;58.63;28.73;;;-2.10;99.90;;;;;;5040083;28;20191;-76
2022/12/17 17:55:33;;;;;;;54.73;28.97;;;-2.10;99.90;;;;;;5035198;28;20215;-77
2022/12/17 17:57:58;;;;;;;64.40;29.10;;;-2.10;99.90;;;;;;5035671;28;21144;-75
2022/12/17 18:00:24;;;;;;;66.37;33.30;;;-2.20;99.90;;;;;;5038545;28;20478;-77
2022/12/17 18:02:50;;;;;;;63.67;32.43;;;-2.30;99.90;;;;;;5032200;28;20200;-71
2022/12/17 18:05:15;;;;;;;62.40;30.97;;;-2.30;99.90;;;;;;5035366;28;20250;-78
2022/12/17 18:07:41;;;;;;;51.93;29.20;;;-2.30;99.90;;;;;;5034752;28;21301;-78
2022/12/17 18:10:07;;;;;;;69.47;29.87;;;-2.30;99.90;;;;;;5031641;28;20264;-76
2022/12/17 18:15:17;;;;;;;55.70;27.00;;;-2.40;99.90;;;;;;5028146;28;20773;-77
2022/12/17 18:17:45;;;;;;;63.50;27.80;;;-2.40;99.90;;;;;;5030378;28;21195;-77
2022/12/17 18:20:11;;;;;;;50.07;28.37;;;-2.40;99.90;;;;;;5032266;28;20270;-76
2022/12/17 18:22:37;;;;;;;62.93;30.77;;;-2.50;99.90;;;;;;5034463;28;20592;-77
2022/12/17 18:25:03;;;;;;;54.83;31.03;;;-2.40;99.90;;;;;;5016278;28;20478;-71
2022/12/17 18:27:29;;;;;;;50.53;27.40;;;-2.40;99.90;;;;;;5036392;28;20298;-69
2022/12/17 18:29:54;;;;;;;49.00;27.30;;;-2.50;99.90;;;;;;5030697;28;20552;-69
2022/12/17 18:32:20;;;;;;;59.20;28.70;;;-2.50;99.90;;;;;;5031095;28;20184;-69
2022/12/17 18:34:45;;;;;;;58.93;29.87;;;-2.50;99.90;;;;;;5032371;28;20200;-69
2022/12/17 18:37:11;;;;;;;54.80;28.97;;;-2.50;99.90;;;;;;5033945;28;20192;-73
2022/12/17 18:39:36;;;;;;;59.23;30.10;;;-2.50;99.90;;;;;;5034680;28;20241;-72
2022/12/17 18:44:46;;;;;;;48.00;26.37;;;-2.50;99.90;;;;;;5028740;28;20222;-75
2022/12/17 18:47:12;;;;;;;52.90;28.47;;;-2.50;99.90;;;;;;5033248;28;20443;-77
2022/12/17 18:49:38;;;;;;;52.23;28.17;;;-2.60;99.90;;;;;;5031370;28;20585;-74
2022/12/17 18:52:04;;;;;;;52.43;26.63;;;-2.60;99.90;;;;;;5031379;28;20195;-74
2022/12/17 18:54:30;;;;;;;51.37;27.90;;;-2.60;99.90;;;;;;5033670;28;20470;-75
2022/12/17 18:56:56;;;;;;;60.00;31.10;;;-2.60;99.90;;;;;;5031435;28;20450;-74
2022/12/17 18:59:25;;;;;;;55.43;27.47;;;-2.70;99.90;;;;;;5033131;28;20454;-74
2022/12/17 19:01:51;;;;;;;64.03;30.77;;;-2.70;99.90;;;;;;5031236;28;20978;-70
2022/12/17 19:04:19;;;;;;;65.50;27.97;;;-2.70;99.90;;;;;;5030453;28;20561;-72
2022/12/17 19:06:47;;;;;;;49.77;26.77;;;-2.70;99.90;;;;;;5029242;28;20438;-73
2022/12/17 19:09:17;;;;;;;46.83;25.80;;;-2.70;99.90;;;;;;5034577;28;20726;-74
2022/12/17 19:11:43;;;;;;;50.40;26.47;;;-2.80;99.90;;;;;;5034404;28;20830;-73
2022/12/17 19:14:09;;;;;;;56.60;29.40;;;-2.80;99.90;;;;;;5031340;28;20571;-74
2022/12/17 19:16:34;;;;;;;61.23;28.50;;;-2.80;99.90;;;;;;5035791;28;20197;-74
2022/12/17 19:19:02;;;;;;;55.10;27.30;;;-2.80;99.90;;;;;;5030334;28;20184;-78
2022/12/17 19:21:32;;;;;;;59.13;28.47;;;-2.80;99.90;;;;;;5027978;28;20184;-78
2022/12/17 19:24:00;;;;;;;59.97;27.60;;;-2.80;99.90;;;;;;5027160;28;20478;-75
2022/12/17 19:26:26;;;;;;;59.23;29.47;;;-2.80;99.90;;;;;;5028847;28;20439;-76
2022/12/17 19:28:54;;;;;;;63.23;30.40;;;-2.80;99.90;;;;;;5032318;28;20560;-74
2022/12/17 19:31:21;;;;;;;60.93;30.20;;;-2.80;99.90;;;;;;5032900;28;20536;-75
2022/12/17 19:33:48;;;;;;;64.27;29.23;;;-2.80;99.90;;;;;;5030058;28;20807;-75
2022/12/17 19:36:16;;;;;;;71.20;29.40;;;-2.80;99.90;;;;;;5028910;28;21321;-73
2022/12/17 19:38:42;;;;;;;69.17;31.87;;;-2.80;99.90;;;;;;5029865;28;20436;-73
2022/12/17 19:41:16;;;;;;;57.33;31.37;;;-2.90;99.90;;;;;;5035852;28;20513;-70
2022/12/17 19:43:46;;;;;;;65.03;30.70;;;-2.80;99.90;;;;;;5029972;28;20830;-67
2022/12/17 19:46:16;;;;;;;60.13;28.57;;;-2.80;99.90;;;;;;5033833;28;20426;-69
2022/12/17 19:48:43;;;;;;;59.20;28.47;;;-2.90;99.90;;;;;;5034572;28;20758;-70
2022/12/17 19:51:11;;;;;;;58.47;30.10;;;-2.90;99.90;;;;;;5033491;28;20446;-69
2022/12/17 19:53:38;;;;;;;54.30;25.57;;;-2.90;99.90;;;;;;5030710;28;20454;-70
2022/12/17 19:56:18;;;;;;;66.23;29.10;;;-2.90;99.90;;;;;;5031886;28;20877;-69
2022/12/17 19:58:45;;;;;;;64.33;27.17;;;-3.00;99.90;;;;;;5012477;28;21018;-70
2022/12/17 20:01:25;;;;;;;59.30;26.97;;;-3.00;99.90;;;;;;5027635;28;20442;-67
2022/12/17 20:03:52;;;;;;;62.70;28.40;;;-3.00;99.90;;;;;;5026620;28;20465;-70
2022/12/17 20:06:21;;;;;;;56.80;27.50;;;-3.00;99.90;;;;;;5029754;28;21263;-72
2022/12/17 20:08:47;;;;;;;53.07;28.53;;;-3.00;99.90;;;;;;5028461;28;20442;-72
2022/12/17 20:11:32;;;;;;;59.53;26.97;;;-3.00;99.90;;;;;;5028183;28;20488;-72
2022/12/17 20:13:59;;;;;;;61.70;28.87;;;-3.00;99.90;;;;;;5015225;28;20693;-70
2022/12/17 20:16:26;;;;;;;68.73;29.53;;;-3.00;99.90;;;;;;5032463;28;20426;-70
2022/12/17 20:18:51;;;;;;;66.80;29.40;;;-3.00;99.90;;;;;;5030782;28;20805;-70
2022/12/17 20:21:18;;;;;;;56.30;27.50;;;-3.00;99.90;;;;;;5031199;28;20457;-74
2022/12/17 20:23:49;;;;;;;59.03;29.70;;;-3.00;99.90;;;;;;5023878;28;20234;-72
2022/12/17 20:26:16;;;;;;;59.80;29.47;;;-3.00;99.90;;;;;;5033142;28;20449;-72
2022/12/17 20:28:42;;;;;;;64.47;29.60;;;-3.00;99.90;;;;;;5025469;28;20439;-74
2022/12/17 20:31:08;;;;;;;63.70;27.73;;;-3.00;99.90;;;;;;5031018;28;20438;-72
2022/12/17 20:33:34;;;;;;;57.37;25.53;;;-3.00;99.90;;;;;;5031158;28;20572;-73
2022/12/17 20:36:08;;;;;;;61.87;31.80;;;-3.00;99.90;;;;;;5028459;28;20443;-74
2022/12/17 20:38:34;;;;;;;53.17;27.40;;;-3.10;99.90;;;;;;5032348;28;20223;-75
2022/12/17 20:40:59;;;;;;;67.13;29.87;;;-3.00;99.90;;;;;;5031291;28;20570;-77
2022/12/17 20:43:26;;;;;;;60.30;29.70;;;-3.10;99.90;;;;;;5028889;28;20195;-79
2022/12/17 20:45:54;;;;;;;58.73;30.03;;;-3.10;99.90;;;;;;5027535;28;20188;-74
2022/12/17 20:48:20;;;;;;;55.87;28.40;;;-3.00;99.90;;;;;;5030847;28;20569;-74
2022/12/17 20:50:46;;;;;;;63.77;29.83;;;-3.00;99.90;;;;;;5026014;28;20553;-73
2022/12/17 20:53:12;;;;;;;60.93;28.93;;;-3.00;99.90;;;;;;5033340;28;20434;-73
2022/12/17 20:55:38;;;;;;;58.67;28.13;;;-3.00;99.90;;;;;;5031331;28;20325;-71
2022/12/17 20:58:03;;;;;;;59.63;28.53;;;-3.00;99.90;;;;;;5031785;28;20206;-74
2022/12/17 21:00:29;;;;;;;66.27;29.83;;;-3.10;99.90;;;;;;5030352;28;20302;-76
2022/12/17 21:02:55;;;;;;;57.93;29.47;;;-3.10;99.90;;;;;;5033235;28;20224;-75
2022/12/17 21:05:21;;;;;;;62.83;30.77;;;-3.10;99.90;;;;;;5032962;28;20685;-75
2022/12/17 21:07:48;;;;;;;55.90;27.07;;;-3.20;99.90;;;;;;5026328;28;20445;-70
2022/12/17 21:10:14;;;;;;;48.90;24.73;;;-3.10;99.90;;;;;;5029785;28;20456;-71
2022/12/17 21:15:23;;;;;;;59.50;28.47;;;-3.10;99.90;;;;;;5034492;28;20260;-71
2022/12/17 21:17:49;;;;;;;56.03;27.33;;;-3.10;99.90;;;;;;5031529;28;20444;-72
2022/12/17 21:20:15;;;;;;;55.40;26.60;;;-3.20;99.90;;;;;;5032398;28;20194;-72
2022/12/17 21:22:41;;;;;;;58.20;28.90;;;-3.20;99.90;;;;;;5037397;28;20198;-72
2022/12/17 21:25:07;;;;;;;69.33;30.63;;;-3.20;99.90;;;;;;5032670;28;20252;-73
2022/12/17 21:27:33;;;;;;;55.47;28.67;;;-3.20;99.90;;;;;;5034658;28;20442;-74
2022/12/17 21:29:59;;;;;;;58.77;27.33;;;-3.20;99.90;;;;;;5037106;28;20434;-74
2022/12/17 21:32:25;;;;;;;60.00;26.63;;;-3.20;99.90;;;;;;5037475;28;20440;-71
2022/12/17 21:34:50;;;;;;;66.43;28.70;;;-3.20;99.90;;;;;;5039690;28;20465;-73
2022/12/17 21:37:16;;;;;;;54.53;26.30;;;-3.20;99.90;;;;;;5021446;28;20273;-71
2022/12/17 21:39:42;;;;;;;50.93;26.43;;;-3.20;99.90;;;;;;5037186;28;20599;-72
2022/12/17 21:44:52;;;;;;;48.30;26.90;;;-3.20;99.90;;;;;;5032945;28;20586;-75
2022/12/17 21:47:17;;;;;;;48.23;25.60;;;-3.30;99.90;;;;;;5040893;28;20434;-72
2022/12/17 21:49:43;;;;;;;51.97;26.47;;;-3.30;99.90;;;;;;5036734;28;20804;-73
2022/12/17 21:52:08;;;;;;;56.97;27.93;;;-3.30;99.90;;;;;;5036813;28;20553;-72
2022/12/17 21:54:34;;;;;;;58.13;28.80;;;-3.30;99.90;;;;;;5038936;28;20211;-72
2022/12/17 21:56:59;;;;;;;51.93;27.40;;;-3.20;99.90;;;;;;5034879;28;20215;-73
2022/12/17 21:59:25;;;;;;;58.50;27.80;;;-3.20;99.90;;;;;;5035257;28;20188;-73
2022/12/17 22:01:52;;;;;;;61.70;27.70;;;-3.20;99.90;;;;;;5036994;28;20578;-72
2022/12/17 22:04:17;;;;;;;58.97;28.17;;;-3.20;99.90;;;;;;5037039;28;20227;-73
2022/12/17 22:06:43;;;;;;;57.90;29.50;;;-3.30;99.90;;;;;;5037431;28;20442;-73
2022/12/17 22:09:09;;;;;;;59.43;29.80;;;-3.30;99.90;;;;;;5033908;28;20931;-73
2022/12/17 22:11:35;;;;;;;55.57;26.70;;;-3.30;99.90;;;;;;5038030;28;20194;-72
2022/12/17 22:14:01;;;;;;;55.57;27.00;;;-3.20;99.90;;;;;;5036201;28;20536;-74
2022/12/17 22:16:33;;;;;;;54.00;27.00;;;-3.30;99.90;;;;;;5037388;28;20190;-72
2022/12/17 22:19:00;;;;;;;53.47;27.93;;;-3.20;99.90;;;;;;5035165;28;21196;-72
2022/12/17 22:21:26;;;;;;;57.27;27.90;;;-3.20;99.90;;;;;;5036047;28;20441;-72
2022/12/17 22:23:52;;;;;;;61.07;27.33;;;-3.20;99.90;;;;;;5035105;28;20467;-72
2022/12/17 22:26:19;;;;;;;53.07;25.23;;;-3.20;99.90;;;;;;5035587;28;20510;-73
2022/12/17 22:28:47;;;;;;;56.07;28.47;;;-3.20;99.90;;;;;;5036363;28;20526;-73
2022/12/17 22:33:58;;;;;;;58.33;28.67;;;-3.20;99.90;;;;;;5033791;28;20476;-73
2022/12/17 22:36:27;;;;;;;51.97;26.70;;;-3.20;99.90;;;;;;5036362;28;20450;-73
2022/12/17 22:38:53;;;;;;;61.03;30.40;;;-3.20;99.90;;;;;;5033482;28;20461;-73
2022/12/17 22:44:03;;;;;;;58.23;28.10;;;-3.20;99.90;;;;;;5038388;28;20229;-73
2022/12/17 22:46:30;;;;;;;47.97;25.20;;;-3.20;99.90;;;;;;5035024;28;20649;-73
2022/12/17 22:48:56;;;;;;;55.33;27.90;;;-3.20;99.90;;;;;;5034692;28;21194;-74
2022/12/17 22:51:22;;;;;;;51.63;27.80;;;-3.30;99.90;;;;;;5037765;28;20467;-73
2022/12/17 22:53:48;;;;;;;57.43;27.77;;;-3.30;99.90;;;;;;5020359;28;21042;-73
2022/12/17 22:56:14;;;;;;;51.67;25.47;;;-3.30;99.90;;;;;;5039406;28;20432;-72
2022/12/17 22:58:41;;;;;;;57.90;28.23;;;-3.30;99.90;;;;;;5017935;28;20453;-73
2022/12/17 23:01:07;;;;;;;60.07;28.17;;;-3.30;99.90;;;;;;5036834;28;20496;-73
2022/12/17 23:03:32;;;;;;;60.10;28.80;;;-3.30;99.90;;;;;;5034350;28;20465;-73
2022/12/17 23:06:06;;;;;;;61.43;28.53;;;-3.30;99.90;;;;;;5032090;28;20178;-74
2022/12/17 23:08:31;;;;;;;47.47;25.87;;;-3.30;99.90;;;;;;5035550;28;20207;-73
2022/12/17 23:10:57;;;;;;;56.03;28.17;;;-3.40;99.90;;;;;;5027776;28;20461;-73
2022/12/17 23:13:22;;;;;;;49.60;25.63;;;-3.40;99.90;;;;;;5014376;28;20199;-74
2022/12/17 23:15:50;;;;;;;60.10;25.67;;;-3.40;99.90;;;;;;5032214;28;20186;-73
2022/12/17 23:18:15;;;;;;;51.20;25.27;;;-3.40;99.90;;;;;;5033413;28;20227;-73
2022/12/17 23:20:41;;;;;;;57.30;29.17;;;-3.50;99.90;;;;;;5033033;28;20438;-72
2022/12/17 23:23:06;;;;;;;52.60;26.83;;;-3.50;99.90;;;;;;5029335;28;20180;-72
2022/12/17 23:25:32;;;;;;;51.83;26.73;;;-3.50;99.90;;;;;;5024876;28;20707;-72
2022/12/17 23:27:58;;;;;;;58.83;26.40;;;-3.50;99.90;;;;;;5024312;28;20856;-72
2022/12/17 23:30:23;;;;;;;50.57;27.33;;;-3.50;99.90;;;;;;5036679;28;20265;-72
2022/12/17 23:32:49;;;;;;;53.93;25.67;;;-3.50;99.90;;;;;;5034930;28;20175;-76
2022/12/17 23:35:15;;;;;;;50.00;24.77;;;-3.50;99.90;;;;;;5032696;28;20221;-75
2022/12/17 23:37:41;;;;;;;56.63;26.53;;;-3.60;99.90;;;;;;5036562;28;20184;-74
2022/12/17 23:40:10;;;;;;;54.40;26.67;;;-3.50;99.90;;;;;;5035301;28;20226;-74
2022/12/17 23:42:36;;;;;;;49.10;26.10;;;-3.50;99.90;;;;;;5032609;28;20185;-74
2022/12/17 23:45:02;;;;;;;58.27;27.47;;;-3.60;99.90;;;;;;5034245;28;20583;-73
2022/12/17 23:47:27;;;;;;;46.93;26.30;;;-3.60;99.90;;;;;;5035054;28;20183;-73
2022/12/17 23:49:53;;;;;;;47.63;25.60;;;-3.70;99.90;;;;;;5034538;28;20450;-74
2022/12/17 23:52:19;;;;;;;54.83;27.87;;;-3.70;99.90;;;;;;5036323;28;20964;-74
2022/12/17 23:54:44;;;;;;;52.67;24.90;;;-3.70;99.90;;;;;;5036670;28;20207;-74
2022/12/17 23:57:10;;;;;;;51.27;25.50;;;-3.70;99.90;;;;;;5015370;28;21179;-75
2022/12/17 23:59:35;;;;;;;51.50;25.40;;;-3.70;99.90;;;;;;5032485;28;21159;-74
